sensor_id;sensor_type;location;lat;lon;timestamp;pressure;altitude;pressure_sealevel;temperature;humidity
55460;BME280;41326;45.302;-122.946;2023-04-02T00:01:23;101135.54;;;18.18;55.82
55460;BME280;41326;45.302;-122.946;2023-04-02T00:08:46;101132.99;;;18.18;55.85
55460;BME280;41326;45.302;-122.946;2023-04-02T00:11:20;101131.33;;;18.21;55.69
55460;BME280;41326;45.302;-122.946;2023-04-02T00:13:49;101133.14;;;18.19;55.75
55460;BME280;41326;45.302;-122.946;2023-04-02T00:16:21;101131.44;;;18.19;55.81
55460;BME280;41326;45.302;-122.946;2023-04-02T00:18:51;101139.59;;;18.20;55.55
55460;BME280;41326;45.302;-122.946;2023-04-02T00:21:23;101136.64;;;18.16;55.63
55460;BME280;41326;45.302;-122.946;2023-04-02T00:23:49;101140.90;;;18.19;55.56
55460;BME280;41326;45.302;-122.946;2023-04-02T00:26:29;101149.24;;;18.21;55.41
55460;BME280;41326;45.302;-122.946;2023-04-02T00:28:49;101148.27;;;18.25;55.43
55460;BME280;41326;45.302;-122.946;2023-04-02T00:31:22;101148.75;;;18.27;55.39
55460;BME280;41326;45.302;-122.946;2023-04-02T00:33:50;101148.34;;;18.25;55.43
55460;BME280;41326;45.302;-122.946;2023-04-02T00:36:20;101150.91;;;18.33;55.19
55460;BME280;41326;45.302;-122.946;2023-04-02T00:38:51;101153.32;;;18.31;55.05
55460;BME280;41326;45.302;-122.946;2023-04-02T00:41:25;101157.95;;;18.31;54.89
55460;BME280;41326;45.302;-122.946;2023-04-02T00:43:52;101157.84;;;18.27;55.12
55460;BME280;41326;45.302;-122.946;2023-04-02T00:46:26;101150.73;;;18.27;55.12
55460;BME280;41326;45.302;-122.946;2023-04-02T00:48:56;101152.54;;;18.28;55.12
55460;BME280;41326;45.302;-122.946;2023-04-02T00:51:28;101151.70;;;18.31;55.05
55460;BME280;41326;45.302;-122.946;2023-04-02T00:53:54;101150.46;;;18.33;54.97
55460;BME280;41326;45.302;-122.946;2023-04-02T00:56:26;101149.81;;;18.30;54.99
55460;BME280;41326;45.302;-122.946;2023-04-02T00:58:56;101144.88;;;18.29;54.90
55460;BME280;41326;45.302;-122.946;2023-04-02T01:01:26;101140.24;;;18.27;54.85
55460;BME280;41326;45.302;-122.946;2023-04-02T01:04:00;101134.43;;;18.25;54.88
55460;BME280;41326;45.302;-122.946;2023-04-02T01:06:27;101130.65;;;18.25;54.93
55460;BME280;41326;45.302;-122.946;2023-04-02T01:09:04;101132.75;;;18.25;54.99
55460;BME280;41326;45.302;-122.946;2023-04-02T01:11:38;101133.88;;;18.24;55.04
55460;BME280;41326;45.302;-122.946;2023-04-02T01:14:01;101143.44;;;18.26;54.99
55460;BME280;41326;45.302;-122.946;2023-04-02T01:16:33;101143.96;;;18.27;54.94
55460;BME280;41326;45.302;-122.946;2023-04-02T01:19:04;101143.49;;;18.25;54.82
55460;BME280;41326;45.302;-122.946;2023-04-02T01:21:34;101140.36;;;18.20;54.89
55460;BME280;41326;45.302;-122.946;2023-04-02T01:24:05;101145.02;;;18.22;54.90
55460;BME280;41326;45.302;-122.946;2023-04-02T01:26:35;101150.59;;;18.23;54.93
55460;BME280;41326;45.302;-122.946;2023-04-02T01:29:05;101151.11;;;18.28;54.63
55460;BME280;41326;45.302;-122.946;2023-04-02T01:31:28;101152.82;;;18.41;54.24
55460;BME280;41326;45.302;-122.946;2023-04-02T01:33:58;101150.36;;;18.55;54.32
55460;BME280;41326;45.302;-122.946;2023-04-02T01:36:35;101155.04;;;18.65;54.88
55460;BME280;41326;45.302;-122.946;2023-04-02T01:39:04;101153.40;;;18.65;55.01
55460;BME280;41326;45.302;-122.946;2023-04-02T01:42:40;101155.05;;;18.64;55.05
55460;BME280;41326;45.302;-122.946;2023-04-02T01:45:08;101150.74;;;18.66;55.62
55460;BME280;41326;45.302;-122.946;2023-04-02T01:47:37;101151.45;;;18.64;56.96
55460;BME280;41326;45.302;-122.946;2023-04-02T01:50:18;101156.03;;;18.61;58.34
55460;BME280;41326;45.302;-122.946;2023-04-02T01:52:50;101160.11;;;18.68;59.48
55460;BME280;41326;45.302;-122.946;2023-04-02T01:55:23;101152.49;;;18.68;60.30
55460;BME280;41326;45.302;-122.946;2023-04-02T01:57:51;101159.67;;;18.70;60.43
55460;BME280;41326;45.302;-122.946;2023-04-02T02:00:21;101164.10;;;18.73;59.90
55460;BME280;41326;45.302;-122.946;2023-04-02T02:02:51;101158.58;;;18.69;59.36
55460;BME280;41326;45.302;-122.946;2023-04-02T02:05:21;101158.46;;;18.70;58.89
55460;BME280;41326;45.302;-122.946;2023-04-02T02:07:50;101150.91;;;18.70;58.89
55460;BME280;41326;45.302;-122.946;2023-04-02T02:10:22;101151.25;;;18.72;58.52
55460;BME280;41326;45.302;-122.946;2023-04-02T02:12:50;101145.87;;;18.73;57.76
55460;BME280;41326;45.302;-122.946;2023-04-02T02:15:22;101147.33;;;18.81;56.97
55460;BME280;41326;45.302;-122.946;2023-04-02T02:17:52;101150.90;;;18.92;56.10
55460;BME280;41326;45.302;-122.946;2023-04-02T02:20:21;101155.20;;;18.93;55.54
55460;BME280;41326;45.302;-122.946;2023-04-02T02:22:52;101154.06;;;18.94;55.18
55460;BME280;41326;45.302;-122.946;2023-04-02T02:25:24;101158.70;;;18.91;55.26
55460;BME280;41326;45.302;-122.946;2023-04-02T02:27:59;101152.49;;;18.87;55.57
55460;BME280;41326;45.302;-122.946;2023-04-02T02:30:26;101156.78;;;18.86;55.95
55460;BME280;41326;45.302;-122.946;2023-04-02T02:32:59;101164.57;;;18.82;56.51
55460;BME280;41326;45.302;-122.946;2023-04-02T02:35:27;101168.24;;;18.79;57.16
55460;BME280;41326;45.302;-122.946;2023-04-02T02:38:00;101172.06;;;18.78;57.48
55460;BME280;41326;45.302;-122.946;2023-04-02T02:40:26;101173.82;;;18.76;57.28
55460;BME280;41326;45.302;-122.946;2023-04-02T02:42:56;101175.12;;;18.77;57.16
55460;BME280;41326;45.302;-122.946;2023-04-02T02:45:30;101177.74;;;18.73;57.40
55460;BME280;41326;45.302;-122.946;2023-04-02T02:47:56;101180.88;;;18.73;57.21
55460;BME280;41326;45.302;-122.946;2023-04-02T02:50:27;101181.25;;;18.73;57.10
55460;BME280;41326;45.302;-122.946;2023-04-02T02:52:58;101181.10;;;18.73;56.85
55460;BME280;41326;45.302;-122.946;2023-04-02T02:55:27;101186.83;;;18.68;56.87
55460;BME280;41326;45.302;-122.946;2023-04-02T02:57:59;101187.60;;;18.64;56.63
55460;BME280;41326;45.302;-122.946;2023-04-02T03:00:27;101182.08;;;18.61;56.30
55460;BME280;41326;45.302;-122.946;2023-04-02T03:02:59;101180.62;;;18.63;56.12
55460;BME280;41326;45.302;-122.946;2023-04-02T03:05:30;101179.98;;;18.60;56.20
55460;BME280;41326;45.302;-122.946;2023-04-02T03:08:01;101183.48;;;18.58;56.22
55460;BME280;41326;45.302;-122.946;2023-04-02T03:10:35;101188.64;;;18.54;56.24
55460;BME280;41326;45.302;-122.946;2023-04-02T03:13:04;101185.91;;;18.52;56.21
55460;BME280;41326;45.302;-122.946;2023-04-02T03:15:35;101188.79;;;18.53;56.15
55460;BME280;41326;45.302;-122.946;2023-04-02T03:18:04;101185.07;;;18.52;56.02
55460;BME280;41326;45.302;-122.946;2023-04-02T03:20:36;101187.82;;;18.49;55.87
55460;BME280;41326;45.302;-122.946;2023-04-02T03:23:06;101188.64;;;18.50;55.67
55460;BME280;41326;45.302;-122.946;2023-04-02T03:25:38;101185.99;;;18.49;55.44
55460;BME280;41326;45.302;-122.946;2023-04-02T03:28:05;101187.90;;;18.59;55.08
55460;BME280;41326;45.302;-122.946;2023-04-02T03:30:37;101186.02;;;18.71;54.62
55460;BME280;41326;45.302;-122.946;2023-04-02T03:33:07;101184.77;;;18.77;54.52
55460;BME280;41326;45.302;-122.946;2023-04-02T03:35:38;101187.17;;;18.74;54.57
55460;BME280;41326;45.302;-122.946;2023-04-02T03:38:10;101187.39;;;18.69;54.60
55460;BME280;41326;45.302;-122.946;2023-04-02T03:40:38;101182.43;;;18.66;54.60
55460;BME280;41326;45.302;-122.946;2023-04-02T03:43:12;101183.22;;;18.66;54.52
55460;BME280;41326;45.302;-122.946;2023-04-02T03:45:38;101183.33;;;18.63;54.63
55460;BME280;41326;45.302;-122.946;2023-04-02T03:48:09;101186.61;;;18.60;54.74
55460;BME280;41326;45.302;-122.946;2023-04-02T03:50:39;101199.97;;;18.59;54.76
55460;BME280;41326;45.302;-122.946;2023-04-02T03:53:06;101213.88;;;18.55;54.98
55460;BME280;41326;45.302;-122.946;2023-04-02T03:55:38;101226.30;;;18.52;54.89
55460;BME280;41326;45.302;-122.946;2023-04-02T03:58:12;101238.86;;;18.55;54.61
55460;BME280;41326;45.302;-122.946;2023-04-02T04:00:42;101246.83;;;18.67;54.12
55460;BME280;41326;45.302;-122.946;2023-04-02T04:03:11;101251.20;;;18.78;53.93
55460;BME280;41326;45.302;-122.946;2023-04-02T04:05:43;101258.89;;;18.78;53.98
55460;BME280;41326;45.302;-122.946;2023-04-02T04:08:13;101260.03;;;18.76;54.07
55460;BME280;41326;45.302;-122.946;2023-04-02T04:10:39;101260.13;;;18.72;54.24
55460;BME280;41326;45.302;-122.946;2023-04-02T04:13:12;101263.81;;;18.68;54.39
55460;BME280;41326;45.302;-122.946;2023-04-02T04:15:46;101266.62;;;18.63;54.60
55460;BME280;41326;45.302;-122.946;2023-04-02T04:18:15;101251.23;;;18.60;54.57
55460;BME280;41326;45.302;-122.946;2023-04-02T04:20:47;101230.68;;;18.56;54.59
55460;BME280;41326;45.302;-122.946;2023-04-02T04:23:17;101238.35;;;18.52;54.73
55460;BME280;41326;45.302;-122.946;2023-04-02T04:25:41;101235.87;;;18.56;54.51
55460;BME280;41326;45.302;-122.946;2023-04-02T04:28:18;101231.43;;;18.54;54.60
55460;BME280;41326;45.302;-122.946;2023-04-02T04:30:47;101223.46;;;18.51;54.73
55460;BME280;41326;45.302;-122.946;2023-04-02T04:33:18;101228.66;;;18.50;54.77
55460;BME280;41326;45.302;-122.946;2023-04-02T04:35:44;101222.66;;;18.45;54.91
55460;BME280;41326;45.302;-122.946;2023-04-02T04:38:17;101220.91;;;18.42;54.91
55460;BME280;41326;45.302;-122.946;2023-04-02T04:40:47;101212.79;;;18.40;54.78
55460;BME280;41326;45.302;-122.946;2023-04-02T04:43:19;101209.49;;;18.41;54.79
55460;BME280;41326;45.302;-122.946;2023-04-02T04:45:48;101208.75;;;18.39;54.82
55460;BME280;41326;45.302;-122.946;2023-04-02T04:48:17;101202.01;;;18.38;54.86
55460;BME280;41326;45.302;-122.946;2023-04-02T04:50:50;101203.68;;;18.36;54.82
55460;BME280;41326;45.302;-122.946;2023-04-02T04:53:20;101207.19;;;18.33;54.93
55460;BME280;41326;45.302;-122.946;2023-04-02T04:55:48;101204.01;;;18.33;54.87
55460;BME280;41326;45.302;-122.946;2023-04-02T04:58:22;101202.84;;;18.31;54.85
55460;BME280;41326;45.302;-122.946;2023-04-02T05:00:52;101202.73;;;18.29;54.74
55460;BME280;41326;45.302;-122.946;2023-04-02T05:03:23;101196.24;;;18.24;54.89
55460;BME280;41326;45.302;-122.946;2023-04-02T05:05:46;101197.76;;;18.22;54.98
55460;BME280;41326;45.302;-122.946;2023-04-02T05:08:19;101195.17;;;18.19;55.10
55460;BME280;41326;45.302;-122.946;2023-04-02T05:10:51;101196.59;;;18.19;55.02
55460;BME280;41326;45.302;-122.946;2023-04-02T05:13:21;101196.69;;;18.18;54.98
55460;BME280;41326;45.302;-122.946;2023-04-02T05:15:53;101201.18;;;18.17;55.00
55460;BME280;41326;45.302;-122.946;2023-04-02T05:18:26;101198.41;;;18.14;54.97
55460;BME280;41326;45.302;-122.946;2023-04-02T05:20:51;101197.60;;;18.13;54.83
55460;BME280;41326;45.302;-122.946;2023-04-02T05:23:22;101195.15;;;18.16;54.73
55460;BME280;41326;45.302;-122.946;2023-04-02T05:25:53;101191.95;;;18.13;54.79
55460;BME280;41326;45.302;-122.946;2023-04-02T05:28:24;101190.77;;;18.10;54.87
55460;BME280;41326;45.302;-122.946;2023-04-02T05:30:53;101197.00;;;18.08;54.85
55460;BME280;41326;45.302;-122.946;2023-04-02T05:33:23;101200.95;;;18.06;54.96
55460;BME280;41326;45.302;-122.946;2023-04-02T05:35:55;101202.20;;;18.06;54.95
55460;BME280;41326;45.302;-122.946;2023-04-02T05:38:24;101199.74;;;18.04;54.92
55460;BME280;41326;45.302;-122.946;2023-04-02T05:40:57;101192.54;;;18.04;54.72
55460;BME280;41326;45.302;-122.946;2023-04-02T05:43:23;101191.55;;;18.01;54.79
55460;BME280;41326;45.302;-122.946;2023-04-02T05:45:57;101185.94;;;17.97;54.82
55460;BME280;41326;45.302;-122.946;2023-04-02T05:48:25;101181.25;;;17.97;54.85
55460;BME280;41326;45.302;-122.946;2023-04-02T05:50:54;101178.04;;;17.91;54.94
55460;BME280;41326;45.302;-122.946;2023-04-02T05:53:26;101169.23;;;17.92;54.88
55460;BME280;41326;45.302;-122.946;2023-04-02T05:55:58;101160.96;;;17.89;55.01
55460;BME280;41326;45.302;-122.946;2023-04-02T05:58:31;101155.85;;;17.89;54.83
55460;BME280;41326;45.302;-122.946;2023-04-02T06:03:32;101149.58;;;17.85;54.92
55460;BME280;41326;45.302;-122.946;2023-04-02T06:05:58;101147.05;;;17.82;55.11
55460;BME280;41326;45.302;-122.946;2023-04-02T06:08:30;101141.11;;;17.80;55.26
55460;BME280;41326;45.302;-122.946;2023-04-02T06:10:58;101134.56;;;17.80;55.24
55460;BME280;41326;45.302;-122.946;2023-04-02T06:13:26;101131.33;;;17.79;55.31
55460;BME280;41326;45.302;-122.946;2023-04-02T06:15:56;101128.06;;;17.77;55.39
55460;BME280;41326;45.302;-122.946;2023-04-02T06:18:28;101125.44;;;17.74;55.38
55460;BME280;41326;45.302;-122.946;2023-04-02T06:20:57;101125.25;;;17.73;55.43
55460;BME280;41326;45.302;-122.946;2023-04-02T06:23:31;101124.43;;;17.73;55.60
55460;BME280;41326;45.302;-122.946;2023-04-02T06:26:01;101126.32;;;17.72;55.68
55460;BME280;41326;45.302;-122.946;2023-04-02T06:28:33;101126.99;;;17.72;55.64
55460;BME280;41326;45.302;-122.946;2023-04-02T06:31:00;101128.14;;;17.72;55.70
55460;BME280;41326;45.302;-122.946;2023-04-02T06:33:28;101126.21;;;17.73;55.63
55460;BME280;41326;45.302;-122.946;2023-04-02T06:35:59;101125.16;;;17.71;55.63
55460;BME280;41326;45.302;-122.946;2023-04-02T06:38:31;101120.53;;;17.70;55.52
55460;BME280;41326;45.302;-122.946;2023-04-02T06:41:02;101121.11;;;17.68;55.60
55460;BME280;41326;45.302;-122.946;2023-04-02T06:43:33;101111.38;;;17.66;55.76
55460;BME280;41326;45.302;-122.946;2023-04-02T06:46:02;101109.70;;;17.61;55.90
55460;BME280;41326;45.302;-122.946;2023-04-02T06:48:30;101113.62;;;17.61;55.91
55460;BME280;41326;45.302;-122.946;2023-04-02T06:51:04;101110.96;;;17.61;55.85
55460;BME280;41326;45.302;-122.946;2023-04-02T06:53:33;101110.68;;;17.59;55.86
55460;BME280;41326;45.302;-122.946;2023-04-02T06:56:07;101119.91;;;17.58;55.87
55460;BME280;41326;45.302;-122.946;2023-04-02T06:58:31;101116.62;;;17.55;55.79
55460;BME280;41326;45.302;-122.946;2023-04-02T07:01:01;101116.46;;;17.53;55.87
55460;BME280;41326;45.302;-122.946;2023-04-02T07:03:33;101109.35;;;17.55;55.86
55460;BME280;41326;45.302;-122.946;2023-04-02T07:06:03;101104.99;;;17.52;55.93
55460;BME280;41326;45.302;-122.946;2023-04-02T07:08:33;101104.57;;;17.52;55.93
55460;BME280;41326;45.302;-122.946;2023-04-02T07:11:02;101101.21;;;17.48;55.97
55460;BME280;41326;45.302;-122.946;2023-04-02T07:13:33;101088.58;;;17.48;55.93
55460;BME280;41326;45.302;-122.946;2023-04-02T07:16:03;101088.52;;;17.46;55.95
55460;BME280;41326;45.302;-122.946;2023-04-02T07:18:35;101087.82;;;17.42;55.92
55460;BME280;41326;45.302;-122.946;2023-04-02T07:21:04;101085.43;;;17.44;55.85
55460;BME280;41326;45.302;-122.946;2023-04-02T07:23:34;101085.24;;;17.42;55.93
55460;BME280;41326;45.302;-122.946;2023-04-02T07:26:06;101082.16;;;17.39;56.00
55460;BME280;41326;45.302;-122.946;2023-04-02T07:28:35;101081.78;;;17.38;56.03
55460;BME280;41326;45.302;-122.946;2023-04-02T07:31:09;101079.82;;;17.35;56.17
55460;BME280;41326;45.302;-122.946;2023-04-02T07:33:36;101080.80;;;17.33;56.33
55460;BME280;41326;45.302;-122.946;2023-04-02T07:36:08;101082.40;;;17.35;56.29
55460;BME280;41326;45.302;-122.946;2023-04-02T07:38:37;101082.88;;;17.30;56.27
55460;BME280;41326;45.302;-122.946;2023-04-02T07:41:10;101087.88;;;17.29;56.27
55460;BME280;41326;45.302;-122.946;2023-04-02T07:43:38;101090.80;;;17.25;56.48
55460;BME280;41326;45.302;-122.946;2023-04-02T07:46:09;101092.03;;;17.27;56.34
55460;BME280;41326;45.302;-122.946;2023-04-02T07:48:38;101089.44;;;17.23;56.43
55460;BME280;41326;45.302;-122.946;2023-04-02T07:51:14;101083.61;;;17.18;56.48
55460;BME280;41326;45.302;-122.946;2023-04-02T07:53:41;101081.83;;;17.15;56.51
55460;BME280;41326;45.302;-122.946;2023-04-02T07:56:13;101083.31;;;17.17;56.49
55460;BME280;41326;45.302;-122.946;2023-04-02T07:58:40;101079.33;;;17.17;56.37
55460;BME280;41326;45.302;-122.946;2023-04-02T08:01:17;101079.93;;;17.18;56.31
55460;BME280;41326;45.302;-122.946;2023-04-02T08:03:41;101074.55;;;17.16;56.53
55460;BME280;41326;45.302;-122.946;2023-04-02T08:06:11;101069.54;;;17.14;56.90
55460;BME280;41326;45.302;-122.946;2023-04-02T08:08:42;101068.63;;;17.15;56.87
55460;BME280;41326;45.302;-122.946;2023-04-02T08:11:12;101068.67;;;17.10;57.02
55460;BME280;41326;45.302;-122.946;2023-04-02T08:13:42;101068.14;;;17.11;56.96
55460;BME280;41326;45.302;-122.946;2023-04-02T08:16:12;101066.73;;;17.10;56.99
55460;BME280;41326;45.302;-122.946;2023-04-02T08:18:43;101069.47;;;17.09;56.86
55460;BME280;41326;45.302;-122.946;2023-04-02T08:21:14;101067.16;;;17.10;56.72
55460;BME280;41326;45.302;-122.946;2023-04-02T08:23:43;101069.02;;;17.09;56.96
55460;BME280;41326;45.302;-122.946;2023-04-02T08:26:15;101069.21;;;17.08;57.02
55460;BME280;41326;45.302;-122.946;2023-04-02T08:28:43;101064.01;;;17.05;57.05
55460;BME280;41326;45.302;-122.946;2023-04-02T08:31:13;101059.43;;;17.01;57.18
55460;BME280;41326;45.302;-122.946;2023-04-02T08:33:44;101055.43;;;16.95;57.48
55460;BME280;41326;45.302;-122.946;2023-04-02T08:36:18;101049.86;;;16.98;57.26
55460;BME280;41326;45.302;-122.946;2023-04-02T08:38:45;101039.70;;;16.96;57.16
55460;BME280;41326;45.302;-122.946;2023-04-02T08:41:20;101035.61;;;16.96;57.14
55460;BME280;41326;45.302;-122.946;2023-04-02T08:43:58;101031.70;;;16.94;57.23
55460;BME280;41326;45.302;-122.946;2023-04-02T08:46:20;101030.66;;;16.92;57.39
55460;BME280;41326;45.302;-122.946;2023-04-02T08:48:50;101028.72;;;16.91;57.55
55460;BME280;41326;45.302;-122.946;2023-04-02T08:51:25;101036.07;;;16.87;57.65
55460;BME280;41326;45.302;-122.946;2023-04-02T08:53:47;101027.81;;;16.85;57.65
55460;BME280;41326;45.302;-122.946;2023-04-02T08:56:24;101023.73;;;16.83;57.74
55460;BME280;41326;45.302;-122.946;2023-04-02T08:58:49;101020.01;;;16.84;57.49
55460;BME280;41326;45.302;-122.946;2023-04-02T09:01:26;101017.84;;;16.89;57.27
55460;BME280;41326;45.302;-122.946;2023-04-02T09:03:50;101014.56;;;16.89;57.36
55460;BME280;41326;45.302;-122.946;2023-04-02T09:06:21;101016.78;;;16.94;57.15
55460;BME280;41326;45.302;-122.946;2023-04-02T09:08:50;101015.72;;;16.97;57.01
55460;BME280;41326;45.302;-122.946;2023-04-02T09:11:24;101015.17;;;16.99;57.02
55460;BME280;41326;45.302;-122.946;2023-04-02T09:13:53;101016.05;;;17.01;57.02
55460;BME280;41326;45.302;-122.946;2023-04-02T09:16:23;101015.64;;;16.98;57.06
55460;BME280;41326;45.302;-122.946;2023-04-02T09:18:51;101011.66;;;16.96;57.02
55460;BME280;41326;45.302;-122.946;2023-04-02T09:21:30;101012.76;;;16.92;57.01
55460;BME280;41326;45.302;-122.946;2023-04-02T09:23:52;101009.03;;;16.88;57.08
55460;BME280;41326;45.302;-122.946;2023-04-02T09:26:26;101005.11;;;16.87;57.06
55460;BME280;41326;45.302;-122.946;2023-04-02T09:28:54;101010.66;;;16.79;57.27
55460;BME280;41326;45.302;-122.946;2023-04-02T09:31:25;101008.95;;;16.77;57.28
55460;BME280;41326;45.302;-122.946;2023-04-02T09:33:53;101007.93;;;16.77;57.29
55460;BME280;41326;45.302;-122.946;2023-04-02T09:36:32;100997.41;;;16.75;57.36
55460;BME280;41326;45.302;-122.946;2023-04-02T09:38:57;100998.63;;;16.70;57.34
55460;BME280;41326;45.302;-122.946;2023-04-02T09:41:25;100995.70;;;16.69;57.29
55460;BME280;41326;45.302;-122.946;2023-04-02T09:46:28;100989.70;;;16.64;57.72
55460;BME280;41326;45.302;-122.946;2023-04-02T09:48:57;100985.41;;;16.63;57.83
55460;BME280;41326;45.302;-122.946;2023-04-02T09:51:27;100979.63;;;16.64;57.72
55460;BME280;41326;45.302;-122.946;2023-04-02T09:56:28;100978.97;;;16.63;57.69
55460;BME280;41326;45.302;-122.946;2023-04-02T09:59:01;100978.76;;;16.64;57.47
55460;BME280;41326;45.302;-122.946;2023-04-02T10:01:33;100976.52;;;16.65;57.27
55460;BME280;41326;45.302;-122.946;2023-04-02T10:03:57;100974.67;;;16.62;57.43
55460;BME280;41326;45.302;-122.946;2023-04-02T10:06:28;100973.87;;;16.61;57.58
55460;BME280;41326;45.302;-122.946;2023-04-02T10:09:00;100972.22;;;16.61;57.77
55460;BME280;41326;45.302;-122.946;2023-04-02T10:12:40;100969.38;;;16.68;57.51
55460;BME280;41326;45.302;-122.946;2023-04-02T10:15:11;100971.67;;;16.70;57.47
55460;BME280;41326;45.302;-122.946;2023-04-02T10:17:37;100965.82;;;16.73;57.22
55460;BME280;41326;45.302;-122.946;2023-04-02T10:20:13;100958.71;;;16.72;57.16
55460;BME280;41326;45.302;-122.946;2023-04-02T10:22:37;100960.41;;;16.68;57.25
55460;BME280;41326;45.302;-122.946;2023-04-02T10:25:12;100955.28;;;16.62;57.50
55460;BME280;41326;45.302;-122.946;2023-04-02T10:27:43;100954.73;;;16.56;57.65
55460;BME280;41326;45.302;-122.946;2023-04-02T10:30:15;100957.33;;;16.53;57.71
55460;BME280;41326;45.302;-122.946;2023-04-02T10:32:43;100952.97;;;16.48;57.78
55460;BME280;41326;45.302;-122.946;2023-04-02T10:35:18;100952.83;;;16.45;57.92
55460;BME280;41326;45.302;-122.946;2023-04-02T10:37:49;100949.25;;;16.44;57.81
55460;BME280;41326;45.302;-122.946;2023-04-02T10:40:16;100948.90;;;16.44;57.71
55460;BME280;41326;45.302;-122.946;2023-04-02T10:42:44;100947.36;;;16.42;57.71
55460;BME280;41326;45.302;-122.946;2023-04-02T10:45:18;100944.98;;;16.40;57.77
55460;BME280;41326;45.302;-122.946;2023-04-02T10:47:44;100939.09;;;16.39;57.78
55460;BME280;41326;45.302;-122.946;2023-04-02T10:50:31;100936.49;;;16.35;57.91
55460;BME280;41326;45.302;-122.946;2023-04-02T10:52:59;100934.45;;;16.36;58.01
55460;BME280;41326;45.302;-122.946;2023-04-02T10:55:27;100929.41;;;16.34;58.10
55460;BME280;41326;45.302;-122.946;2023-04-02T10:57:55;100931.56;;;16.32;58.05
55460;BME280;41326;45.302;-122.946;2023-04-02T11:00:27;100927.75;;;16.32;57.92
55460;BME280;41326;45.302;-122.946;2023-04-02T11:02:59;100922.98;;;16.29;57.93
55460;BME280;41326;45.302;-122.946;2023-04-02T11:05:33;100923.63;;;16.31;57.88
55460;BME280;41326;45.302;-122.946;2023-04-02T11:08:01;100918.05;;;16.29;57.98
55460;BME280;41326;45.302;-122.946;2023-04-02T11:10:27;100916.45;;;16.28;57.91
55460;BME280;41326;45.302;-122.946;2023-04-02T11:13:01;100915.15;;;16.26;57.95
55460;BME280;41326;45.302;-122.946;2023-04-02T11:15:26;100916.17;;;16.26;57.99
55460;BME280;41326;45.302;-122.946;2023-04-02T11:17:57;100914.17;;;16.24;57.85
55460;BME280;41326;45.302;-122.946;2023-04-02T11:23:05;100911.01;;;16.23;57.85
55460;BME280;41326;45.302;-122.946;2023-04-02T11:25:28;100914.22;;;16.20;58.08
55460;BME280;41326;45.302;-122.946;2023-04-02T11:30:30;100916.40;;;16.16;58.17
55460;BME280;41326;45.302;-122.946;2023-04-02T11:33:03;100912.51;;;16.17;58.11
55460;BME280;41326;45.302;-122.946;2023-04-02T11:35:37;100910.14;;;16.16;58.17
55460;BME280;41326;45.302;-122.946;2023-04-02T11:38:00;100908.91;;;16.13;58.06
55460;BME280;41326;45.302;-122.946;2023-04-02T11:50:33;100896.17;;;16.03;58.35
55460;BME280;41326;45.302;-122.946;2023-04-02T11:53:03;100897.23;;;16.03;58.24
55460;BME280;41326;45.302;-122.946;2023-04-02T11:55:34;100895.52;;;16.03;58.33
55460;BME280;41326;45.302;-122.946;2023-04-02T11:58:10;100892.91;;;16.04;58.16
55460;BME280;41326;45.302;-122.946;2023-04-02T12:03:14;100893.86;;;16.03;58.08
55460;BME280;41326;45.302;-122.946;2023-04-02T12:05:38;100897.40;;;16.03;58.05
55460;BME280;41326;45.302;-122.946;2023-04-02T12:08:15;100892.00;;;16.00;58.22
55460;BME280;41326;45.302;-122.946;2023-04-02T12:13:05;100892.02;;;16.00;58.21
55460;BME280;41326;45.302;-122.946;2023-04-02T12:15:42;100891.43;;;16.00;58.14
55460;BME280;41326;45.302;-122.946;2023-04-02T12:18:12;100886.32;;;15.99;58.00
55460;BME280;41326;45.302;-122.946;2023-04-02T12:20:36;100886.39;;;15.99;57.91
55460;BME280;41326;45.302;-122.946;2023-04-02T12:25:38;100892.05;;;15.97;57.95
55460;BME280;41326;45.302;-122.946;2023-04-02T12:28:14;100896.28;;;15.95;58.01
55460;BME280;41326;45.302;-122.946;2023-04-02T12:30:38;100893.38;;;15.93;58.09
55460;BME280;41326;45.302;-122.946;2023-04-02T12:33:13;100887.04;;;15.92;58.03
55460;BME280;41326;45.302;-122.946;2023-04-02T12:35:39;100887.99;;;15.90;58.04
55460;BME280;41326;45.302;-122.946;2023-04-02T12:40:39;100889.31;;;15.88;57.91
55460;BME280;41326;45.302;-122.946;2023-04-02T12:45:39;100888.35;;;15.87;58.05
55460;BME280;41326;45.302;-122.946;2023-04-02T12:48:10;100885.66;;;15.87;57.95
55460;BME280;41326;45.302;-122.946;2023-04-02T12:50:40;100885.26;;;15.85;57.99
55460;BME280;41326;45.302;-122.946;2023-04-02T12:55:45;100888.20;;;15.81;58.03
55460;BME280;41326;45.302;-122.946;2023-04-02T12:58:21;100879.42;;;15.80;57.90
55460;BME280;41326;45.302;-122.946;2023-04-02T13:00:41;100864.74;;;15.79;57.85
55460;BME280;41326;45.302;-122.946;2023-04-02T13:03:19;100860.68;;;15.78;57.84
55460;BME280;41326;45.302;-122.946;2023-04-02T13:05:44;100864.34;;;15.75;57.95
55460;BME280;41326;45.302;-122.946;2023-04-02T13:08:17;100867.72;;;15.81;57.50
55460;BME280;41326;45.302;-122.946;2023-04-02T13:10:44;100867.75;;;15.92;57.03
55460;BME280;41326;45.302;-122.946;2023-04-02T13:13:20;100867.20;;;16.08;56.56
55460;BME280;41326;45.302;-122.946;2023-04-02T13:15:43;100872.38;;;16.34;55.94
55460;BME280;41326;45.302;-122.946;2023-04-02T13:18:19;100875.06;;;16.58;55.24
55460;BME280;41326;45.302;-122.946;2023-04-02T13:23:24;100872.60;;;16.66;54.97